createdAt,value
2019-04-22T00:00:25.810Z,5.31
2019-04-22T00:01:25.884Z,5.17
2019-04-22T00:02:22.578Z,5.28
2019-04-22T00:03:27.422Z,5.18
2019-04-22T00:04:33.820Z,5.17
2019-04-22T00:05:42.876Z,5.22
2019-04-22T00:06:44.342Z,5.17
2019-04-22T00:07:53.352Z,5.17
2019-04-22T00:08:49.193Z,5.10
2019-04-22T00:09:52.960Z,5.20
2019-04-22T00:10:48.922Z,5.10
2019-04-22T00:12:02.198Z,5.06
2019-04-22T00:12:47.371Z,5.10
2019-04-22T00:14:43.868Z,5.07
2019-04-22T00:15:41.852Z,5.10
2019-04-22T00:17:12.713Z,5.09
2019-04-22T00:17:55.259Z,5.06
2019-04-22T00:19:01.383Z,5.07
2019-04-22T00:19:53.778Z,5.09
2019-04-22T00:20:54.453Z,5.03
2019-04-22T00:21:47.658Z,5.03
2019-04-22T00:22:44.899Z,5.02
2019-04-22T00:23:46.366Z,4.96
2019-04-22T00:24:46.081Z,4.85
2019-04-22T00:25:48.336Z,4.84
2019-04-22T00:26:54.762Z,4.89
2019-04-22T00:27:50.587Z,4.92
2019-04-22T00:28:55.916Z,4.84
2019-04-22T00:29:59.377Z,4.84
2019-04-22T00:30:48.590Z,4.77
2019-04-22T00:31:51.718Z,4.99
2019-04-22T00:32:46.343Z,4.85
2019-04-22T00:33:48.074Z,4.84
2019-04-22T00:34:42.657Z,4.78
2019-04-22T00:35:49.419Z,4.84
2019-04-22T00:37:50.165Z,4.94
2019-04-22T00:38:54.517Z,4.86
2019-04-22T00:39:46.605Z,4.88
2019-04-22T00:40:46.174Z,4.85
2019-04-22T00:41:50.872Z,4.80
2019-04-22T00:42:48.797Z,4.82
2019-04-22T00:43:49.375Z,4.89
2019-04-22T00:44:45.633Z,4.89
2019-04-22T00:45:49.272Z,4.94
2019-04-22T00:47:43.611Z,4.91
2019-04-22T00:49:05.806Z,4.88
2019-04-22T00:50:58.374Z,4.86
2019-04-22T00:51:52.720Z,4.77
2019-04-22T00:52:48.816Z,4.86
2019-04-22T00:53:48.106Z,4.78
2019-04-22T00:54:53.225Z,4.84
2019-04-22T00:55:46.367Z,4.78
2019-04-22T00:56:47.414Z,4.75
2019-04-22T00:57:52.029Z,4.75
2019-04-22T00:58:48.501Z,4.75
2019-04-22T00:59:50.823Z,4.85
2019-04-22T01:00:51.853Z,4.82
2019-04-22T01:01:46.298Z,4.85
2019-04-22T01:02:47.924Z,4.77
2019-04-22T01:04:08.609Z,4.78
2019-04-22T01:04:46.447Z,4.86
2019-04-22T01:05:51.054Z,4.75
2019-04-22T01:06:44.543Z,4.73
2019-04-22T01:07:43.449Z,4.75
2019-04-22T01:08:53.302Z,4.72
2019-04-22T01:09:51.704Z,4.75
2019-04-22T01:10:46.112Z,4.78
2019-04-22T01:11:50.535Z,4.78
2019-04-22T01:12:43.994Z,4.75
2019-04-22T01:13:44.222Z,4.73
2019-04-22T01:14:47.577Z,4.73
2019-04-22T01:15:54.161Z,4.72
2019-04-22T01:16:49.008Z,4.62
2019-04-22T01:17:46.440Z,4.67
2019-04-22T01:18:41.344Z,4.67
2019-04-22T01:19:51.245Z,4.75
2019-04-22T01:21:44.841Z,4.69
2019-04-22T01:22:45.763Z,4.73
2019-04-22T01:23:40.795Z,4.66
2019-04-22T01:24:40.324Z,4.72
2019-04-22T01:25:43.857Z,4.60
2019-04-22T01:26:38.943Z,4.60
2019-04-22T01:27:41.484Z,4.65
2019-04-22T01:28:34.516Z,4.55
2019-04-22T01:29:37.545Z,4.63
2019-04-22T01:30:32.436Z,4.67
2019-04-22T01:31:25.961Z,4.65
2019-04-22T01:32:28.704Z,4.59
2019-04-22T01:33:29.110Z,4.63
2019-04-22T01:34:36.467Z,4.70
2019-04-22T01:35:36.086Z,4.62
2019-04-22T01:36:41.553Z,4.69
2019-04-22T01:37:43.308Z,4.63
2019-04-22T01:38:46.886Z,4.63
2019-04-22T01:39:55.279Z,4.65
2019-04-22T01:40:57.844Z,4.60
2019-04-22T01:41:56.246Z,4.58
2019-04-22T01:42:50.525Z,4.65
2019-04-22T01:45:02.636Z,4.65
2019-04-22T01:46:01.769Z,4.58
2019-04-22T01:47:03.535Z,4.47
2019-04-22T01:48:02.534Z,4.51
2019-04-22T01:49:10.347Z,4.50
2019-04-22T01:49:59.858Z,4.52
2019-04-22T01:51:08.087Z,4.50
2019-04-22T01:52:15.925Z,4.37
2019-04-22T01:53:06.401Z,4.47
2019-04-22T01:54:05.216Z,4.47
2019-04-22T01:55:05.795Z,4.47
2019-04-22T01:56:06.151Z,4.48
2019-04-22T01:56:58.686Z,4.42
2019-04-22T01:57:59.642Z,4.45
2019-04-22T01:58:54.690Z,4.44
2019-04-22T01:59:51.439Z,4.33
2019-04-22T02:00:59.979Z,4.42
2019-04-22T02:02:02.701Z,4.50
2019-04-22T02:03:07.229Z,4.30
2019-04-22T02:04:02.726Z,4.42
2019-04-22T02:05:04.889Z,4.44
2019-04-22T02:06:07.564Z,4.30
2019-04-22T02:07:01.944Z,4.41
2019-04-22T02:08:09.697Z,4.34
2019-04-22T02:09:14.051Z,4.40
2019-04-22T02:10:02.368Z,4.34
2019-04-22T02:11:03.970Z,4.36
2019-04-22T02:12:10.343Z,4.34
2019-04-22T02:13:01.475Z,4.34
2019-04-22T02:14:04.637Z,4.26
2019-04-22T02:15:06.360Z,4.34
2019-04-22T02:16:08.875Z,4.37
2019-04-22T02:17:01.371Z,4.40
2019-04-22T02:18:10.742Z,4.36
2019-04-22T02:19:11.735Z,4.36
2019-04-22T02:20:05.064Z,4.33
2019-04-22T02:21:03.189Z,4.34
2019-04-22T02:22:04.224Z,4.36
2019-04-22T02:23:16.423Z,4.34
2019-04-22T02:24:02.653Z,4.30
2019-04-22T02:24:59.066Z,4.40
2019-04-22T02:26:22.798Z,4.27
2019-04-22T02:27:09.183Z,4.32
2019-04-22T02:28:11.119Z,4.32
2019-04-22T02:29:01.912Z,4.33
2019-04-22T02:29:57.936Z,4.33
2019-04-22T02:31:23.190Z,4.33
2019-04-22T02:32:13.341Z,4.24
2019-04-22T02:37:08.052Z,4.24
2019-04-22T02:38:31.089Z,4.33
2019-04-22T02:40:10.194Z,4.27
2019-04-22T02:43:12.521Z,4.23
2019-04-22T02:44:58.421Z,4.23
2019-04-22T02:47:06.867Z,4.14
2019-04-22T02:48:10.756Z,4.16
2019-04-22T02:50:05.222Z,4.18
2019-04-22T02:51:12.650Z,4.18
2019-04-22T02:52:07.668Z,4.15
2019-04-22T02:53:14.053Z,4.18
2019-04-22T02:55:10.250Z,4.20
2019-04-22T02:57:19.369Z,4.14
2019-04-22T02:58:06.228Z,4.12
2019-04-22T02:59:57.349Z,4.09
2019-04-22T03:01:15.902Z,4.08
2019-04-22T03:02:08.065Z,3.97
2019-04-22T03:03:23.427Z,4.04
2019-04-22T03:04:20.691Z,4.05
2019-04-22T03:05:08.934Z,4.05
2019-04-22T03:06:59.741Z,4.05
2019-04-22T03:08:23.604Z,3.98
2019-04-22T03:11:12.467Z,4.06
2019-04-22T03:13:09.427Z,4.02
2019-04-22T03:14:08.653Z,4.08
2019-04-22T03:17:08.641Z,4.04
2019-04-22T03:18:09.176Z,3.93
2019-04-22T03:19:22.839Z,4.05
2019-04-22T03:20:06.348Z,3.98
2019-04-22T03:21:10.674Z,4.05
2019-04-22T03:22:08.185Z,4.02
2019-04-22T03:23:21.132Z,3.90
2019-04-22T03:24:16.083Z,3.98
2019-04-22T03:25:42.800Z,4.02
2019-04-22T03:28:04.673Z,4.02
2019-04-22T03:29:09.306Z,4.00
2019-04-22T03:31:18.868Z,4.00
2019-04-22T03:32:32.169Z,4.00
2019-04-22T03:35:31.498Z,3.98
2019-04-22T03:36:18.608Z,3.94
2019-04-22T03:37:20.570Z,3.86
2019-04-22T03:38:19.841Z,3.86
2019-04-22T03:39:27.748Z,3.93
2019-04-22T03:40:16.347Z,3.86
2019-04-22T03:41:23.534Z,3.86
2019-04-22T03:44:18.920Z,3.87
2019-04-22T03:45:26.622Z,3.91
2019-04-22T03:46:01.607Z,3.83
2019-04-22T03:48:02.773Z,3.87
2019-04-22T03:49:23.621Z,3.83
2019-04-22T03:50:16.918Z,3.80
2019-04-22T03:51:22.730Z,3.84
2019-04-22T03:53:08.994Z,3.80
2019-04-22T03:54:29.786Z,3.78
2019-04-22T03:57:58.467Z,3.66
2019-04-22T03:59:17.925Z,3.73
2019-04-22T04:00:17.951Z,3.69
2019-04-22T04:01:06.463Z,3.72
2019-04-22T04:04:59.473Z,3.70
2019-04-22T04:06:00.322Z,3.66
2019-04-22T04:07:37.101Z,3.58
2019-04-22T04:09:09.578Z,3.72
2019-04-22T04:10:10.411Z,3.55
2019-04-22T04:10:58.226Z,3.57
2019-04-22T04:13:08.458Z,3.55
2019-04-22T04:14:12.324Z,3.58
2019-04-22T04:16:03.122Z,3.57
2019-04-22T04:17:59.385Z,3.54
2019-04-22T04:20:10.718Z,3.54
2019-04-22T04:21:20.859Z,3.57
2019-04-22T04:22:09.968Z,3.62
2019-04-22T04:23:19.864Z,3.66
2019-04-22T04:24:25.828Z,3.66
2019-04-22T04:26:14.048Z,3.70
2019-04-22T04:27:20.826Z,3.61
2019-04-22T04:31:17.601Z,3.76
2019-04-22T04:32:20.696Z,3.66
2019-04-22T04:33:04.873Z,3.73
2019-04-22T04:37:25.494Z,3.68
2019-04-22T04:38:00.729Z,3.69
2019-04-22T04:39:05.583Z,3.73
2019-04-22T04:40:18.307Z,3.79
2019-04-22T04:41:23.495Z,3.76
2019-04-22T04:42:17.304Z,3.87
2019-04-22T04:43:05.553Z,3.79
2019-04-22T04:46:30.291Z,3.86
2019-04-22T04:48:23.439Z,3.80
2019-04-22T04:51:28.691Z,4.00
2019-04-22T04:52:34.573Z,3.94
2019-04-22T04:56:22.800Z,3.98
2019-04-22T04:57:23.363Z,4.02
2019-04-22T04:59:28.171Z,4.06
2019-04-22T05:01:23.059Z,4.20
2019-04-22T05:02:20.272Z,4.26
2019-04-22T05:03:20.620Z,4.20
2019-04-22T05:04:26.449Z,4.29
2019-04-22T05:05:16.815Z,4.26
2019-04-22T05:06:22.221Z,4.32
2019-04-22T05:08:31.335Z,4.44
2019-04-22T05:09:26.217Z,4.36
2019-04-22T05:12:27.550Z,4.51
2019-04-22T05:13:14.486Z,4.65
2019-04-22T05:15:43.421Z,4.70
2019-04-22T05:16:47.694Z,4.73
2019-04-22T05:17:52.371Z,4.82
2019-04-22T05:18:49.172Z,4.78
2019-04-22T05:19:49.616Z,4.91
2019-04-22T05:20:59.681Z,4.91
2019-04-22T05:21:40.566Z,4.99
2019-04-22T05:22:44.749Z,4.96
2019-04-22T05:23:58.863Z,5.04
2019-04-22T05:24:38.368Z,5.07
2019-04-22T05:25:27.271Z,5.10
2019-04-22T05:26:52.818Z,5.12
2019-04-22T05:27:41.205Z,5.10
2019-04-22T05:28:35.050Z,5.17
2019-04-22T05:31:38.883Z,5.31
2019-04-22T05:33:37.766Z,5.33
2019-04-22T05:34:35.091Z,5.39
2019-04-22T05:35:38.982Z,5.45
2019-04-22T05:36:33.724Z,5.53
2019-04-22T05:38:39.841Z,5.53
2019-04-22T05:39:49.669Z,5.65
2019-04-22T05:40:34.800Z,5.71
2019-04-22T05:41:54.884Z,5.68
2019-04-22T05:42:32.238Z,5.78
2019-04-22T05:43:34.298Z,5.86
2019-04-22T05:44:56.597Z,5.91
2019-04-22T05:45:32.367Z,5.90
2019-04-22T05:46:44.028Z,6.08
2019-04-22T05:47:42.276Z,6.12
2019-04-22T05:48:38.031Z,6.18
2019-04-22T05:49:38.831Z,6.30
2019-04-22T05:50:29.387Z,6.34
2019-04-22T05:51:36.992Z,6.46
2019-04-22T05:53:50.401Z,6.67
2019-04-22T05:56:03.969Z,6.69
2019-04-22T05:57:14.372Z,6.81
2019-04-22T06:00:01.230Z,6.95
2019-04-22T06:01:29.533Z,7.10
2019-04-22T06:02:11.143Z,7.09
2019-04-22T06:05:13.870Z,7.32
2019-04-22T06:07:26.501Z,7.42
2019-04-22T06:08:29.219Z,7.63
2019-04-22T06:09:30.618Z,7.72
2019-04-22T06:10:33.085Z,7.77
2019-04-22T06:12:26.862Z,8.10
2019-04-22T06:13:32.967Z,8.26
2019-04-22T06:15:39.006Z,8.80
2019-04-22T06:16:44.098Z,9.38
2019-04-22T06:17:49.245Z,10.44
2019-04-22T06:18:56.837Z,11.55
2019-04-22T06:19:44.388Z,12.52
2019-04-22T06:20:50.062Z,13.26
2019-04-22T06:22:59.627Z,14.92
2019-04-22T06:24:56.967Z,16.39
2019-04-22T06:29:19.709Z,18.26
2019-04-22T06:30:21.733Z,18.37
2019-04-22T06:31:18.697Z,18.66
2019-04-22T06:32:26.632Z,18.84
2019-04-22T06:33:15.209Z,18.92
2019-04-22T06:35:36.444Z,19.43
2019-04-22T06:36:38.085Z,19.63
2019-04-22T06:37:13.425Z,19.98
2019-04-22T06:40:13.274Z,20.21
2019-04-22T06:41:22.899Z,20.23
2019-04-22T06:43:10.329Z,20.13
2019-04-22T06:44:24.233Z,20.23
2019-04-22T06:46:09.831Z,20.39
2019-04-22T06:47:39.863Z,20.61
2019-04-22T06:48:18.927Z,20.85
2019-04-22T06:49:26.794Z,20.98
2019-04-22T06:50:18.525Z,21.13
2019-04-22T06:51:06.473Z,21.16
2019-04-22T06:52:28.137Z,21.10
2019-04-22T06:53:11.133Z,21.17
2019-04-22T06:54:07.833Z,21.10
2019-04-22T06:55:16.603Z,21.09
2019-04-22T06:56:10.981Z,21.19
2019-04-22T06:57:06.152Z,21.31
2019-04-22T06:59:18.373Z,21.34
2019-04-22T07:00:36.672Z,21.32
2019-04-22T07:01:28.666Z,21.47
2019-04-22T07:03:34.711Z,21.31
2019-04-22T07:04:33.743Z,21.32
2019-04-22T07:05:41.236Z,21.37
2019-04-22T07:06:26.104Z,21.22
2019-04-22T07:07:24.133Z,21.22
2019-04-22T07:09:46.610Z,21.19
2019-04-22T07:11:45.161Z,21.35
2019-04-22T07:12:36.465Z,21.35
2019-04-22T07:14:01.667Z,21.21
2019-04-22T07:14:39.905Z,21.13
2019-04-22T07:16:44.582Z,21.21
2019-04-22T07:17:50.855Z,21.28
2019-04-22T07:18:45.040Z,21.42
2019-04-22T07:19:45.316Z,21.38
2019-04-22T07:21:37.360Z,21.40
2019-04-22T07:22:43.579Z,21.44
2019-04-22T07:23:51.038Z,21.40
2019-04-22T07:25:37.922Z,21.34
2019-04-22T07:26:46.193Z,21.28
2019-04-22T07:27:48.648Z,21.27
2019-04-22T07:28:37.158Z,21.31
2019-04-22T07:29:49.261Z,21.29
2019-04-22T07:31:02.360Z,21.04
2019-04-22T07:31:49.591Z,20.62
2019-04-22T07:33:04.313Z,20.41
2019-04-22T07:33:47.537Z,20.02
2019-04-22T07:34:33.187Z,19.86
2019-04-22T07:37:13.078Z,19.66
2019-04-22T07:38:07.851Z,19.61
2019-04-22T07:38:48.870Z,19.76
2019-04-22T07:39:50.964Z,19.81
2019-04-22T07:41:56.148Z,20.05
2019-04-22T07:42:57.735Z,20.18
2019-04-22T07:44:14.436Z,20.17
2019-04-22T07:44:52.872Z,20.13
2019-04-22T07:46:00.343Z,20.21
2019-04-22T07:48:03.112Z,20.06
2019-04-22T07:48:57.755Z,20.01
2019-04-22T07:50:03.107Z,20.03
2019-04-22T07:51:22.501Z,20.08
2019-04-22T07:52:05.077Z,20.21
2019-04-22T07:53:02.943Z,20.21
2019-04-22T07:54:06.288Z,20.01
2019-04-22T07:54:58.321Z,19.94
2019-04-22T07:56:16.514Z,19.78
2019-04-22T07:57:15.369Z,19.77
2019-04-22T07:58:10.207Z,19.88
2019-04-22T07:59:09.603Z,20.03
2019-04-22T08:00:16.103Z,20.11
2019-04-22T08:01:04.144Z,20.01
2019-04-22T08:02:11.037Z,19.65
2019-04-22T08:02:59.166Z,19.31
2019-04-22T08:04:17.661Z,19.08
2019-04-22T08:06:16.821Z,18.48
2019-04-22T08:07:25.428Z,18.54
2019-04-22T08:08:13.038Z,18.78
2019-04-22T08:09:07.581Z,18.94
2019-04-22T08:11:21.594Z,19.32
2019-04-22T08:16:10.554Z,18.99
2019-04-22T08:17:43.206Z,18.65
2019-04-22T08:18:32.887Z,18.20
2019-04-22T08:19:15.763Z,17.87
2019-04-22T08:20:19.317Z,17.71
2019-04-22T08:21:13.605Z,17.63
2019-04-22T08:22:07.473Z,17.72
2019-04-22T08:24:28.620Z,18.07
2019-04-22T08:26:27.364Z,18.44
2019-04-22T08:27:24.608Z,18.50
2019-04-22T08:29:46.703Z,18.55
2019-04-22T08:30:41.134Z,18.26
2019-04-22T08:32:53.118Z,17.81
2019-04-22T08:33:54.574Z,17.86
2019-04-22T08:35:18.711Z,18.14
2019-04-22T08:37:25.613Z,18.47
2019-04-22T08:38:06.824Z,18.50
2019-04-22T08:40:15.422Z,18.51
2019-04-22T08:40:56.874Z,18.33
2019-04-22T08:42:08.374Z,18.12
2019-04-22T08:47:11.071Z,18.29
2019-04-22T08:49:19.934Z,18.57
2019-04-22T08:50:26.746Z,18.72
2019-04-22T08:52:21.117Z,19.04
2019-04-22T08:53:37.563Z,19.08
2019-04-22T08:54:34.121Z,19.26
2019-04-22T08:55:26.322Z,19.06
2019-04-22T08:56:29.868Z,18.94
2019-04-22T08:57:35.061Z,18.92
2019-04-22T08:59:19.489Z,18.81
2019-04-22T09:00:20.294Z,18.72
2019-04-22T09:03:34.983Z,18.78
2019-04-22T09:04:30.594Z,18.72
2019-04-22T09:06:02.025Z,18.70
2019-04-22T09:07:01.164Z,18.69
2019-04-22T09:07:38.094Z,18.80
2019-04-22T09:08:33.820Z,18.98
2019-04-22T09:09:47.265Z,18.98
2019-04-22T09:10:37.987Z,18.82
2019-04-22T09:12:49.996Z,18.87
2019-04-22T09:13:39.802Z,18.95
2019-04-22T09:14:40.003Z,18.94
2019-04-22T09:15:34.515Z,19.13
2019-04-22T09:16:39.821Z,19.21
2019-04-22T09:17:34.775Z,19.39
2019-04-22T09:18:36.585Z,19.37
2019-04-22T09:19:47.894Z,19.56
2019-04-22T09:20:26.027Z,19.37
2019-04-22T09:22:44.135Z,19.18
2019-04-22T09:23:53.918Z,19.11
2019-04-22T09:24:40.769Z,19.02
2019-04-22T09:25:34.725Z,19.07
2019-04-22T09:26:36.050Z,18.95
2019-04-22T09:27:38.529Z,18.99
2019-04-22T09:28:37.700Z,18.98
2019-04-22T09:31:41.007Z,19.06
2019-04-22T09:32:38.076Z,18.99
2019-04-22T09:33:31.880Z,19.00
2019-04-22T09:34:38.280Z,19.02
2019-04-22T09:35:37.562Z,19.16
2019-04-22T09:37:48.251Z,19.18
2019-04-22T09:39:52.966Z,19.07
2019-04-22T09:40:50.358Z,19.10
2019-04-22T09:41:54.963Z,19.29
2019-04-22T09:43:00.991Z,19.33
2019-04-22T09:45:46.746Z,18.76
2019-04-22T09:47:56.717Z,18.50
2019-04-22T09:48:43.436Z,18.51
2019-04-22T09:49:53.173Z,18.63
2019-04-22T09:50:47.974Z,18.73
2019-04-22T09:51:46.177Z,18.67
2019-04-22T09:52:55.912Z,18.82
2019-04-22T09:57:09.583Z,19.29
2019-04-22T09:57:58.893Z,19.43
2019-04-22T09:58:59.003Z,19.55
2019-04-22T10:00:11.684Z,19.69
2019-04-22T10:01:03.027Z,19.65
2019-04-22T10:02:07.795Z,19.71
2019-04-22T10:06:22.306Z,19.68
2019-04-22T10:07:27.508Z,19.68
2019-04-22T10:08:31.969Z,19.73
2019-04-22T10:09:37.329Z,19.77
2019-04-22T10:12:42.363Z,19.51
2019-04-22T10:13:34.609Z,19.54
2019-04-22T10:14:30.834Z,19.55
2019-04-22T10:15:33.315Z,19.61
2019-04-22T10:17:32.347Z,19.83
2019-04-22T10:18:34.061Z,19.86
2019-04-22T10:19:31.650Z,20.05
2019-04-22T10:20:36.282Z,20.16
2019-04-22T10:21:40.255Z,20.20
2019-04-22T10:22:32.539Z,20.31
2019-04-22T10:23:34.564Z,20.42
2019-04-22T10:24:24.508Z,20.35
2019-04-22T10:25:29.888Z,20.17
2019-04-22T10:26:39.078Z,20.32
2019-04-22T10:27:32.737Z,20.23
2019-04-22T10:28:44.777Z,20.32
2019-04-22T10:29:35.145Z,20.41
2019-04-22T10:31:43.713Z,20.41
2019-04-22T10:32:29.176Z,20.08
2019-04-22T10:33:26.939Z,20.02
2019-04-22T10:34:16.715Z,19.99
2019-04-22T10:35:12.284Z,20.02
